sensor_id;sensor_type;location;lat;lon;timestamp;P1;durP1;ratioP1;P2;durP2;ratioP2
46613;SDS011;32338;50.430;6.806;2022-11-18T00:01:55;4.88;;;2.38;;
46613;SDS011;32338;50.430;6.806;2022-11-18T00:04:22;12.27;;;2.75;;
46613;SDS011;32338;50.430;6.806;2022-11-18T00:06:49;8.35;;;2.95;;
46613;SDS011;32338;50.430;6.806;2022-11-18T00:09:16;7.22;;;2.40;;
46613;SDS011;32338;50.430;6.806;2022-11-18T00:11:46;12.20;;;2.90;;
46613;SDS011;32338;50.430;6.806;2022-11-18T00:14:26;9.88;;;2.28;;
46613;SDS011;32338;50.430;6.806;2022-11-18T00:16:54;7.10;;;1.88;;
46613;SDS011;32338;50.430;6.806;2022-11-18T00:19:27;9.13;;;2.38;;
46613;SDS011;32338;50.430;6.806;2022-11-18T00:21:55;4.50;;;2.47;;
46613;SDS011;32338;50.430;6.806;2022-11-18T00:24:23;10.98;;;2.10;;
46613;SDS011;32338;50.430;6.806;2022-11-18T00:26:50;7.95;;;2.55;;
46613;SDS011;32338;50.430;6.806;2022-11-18T00:29:24;7.68;;;2.17;;
46613;SDS011;32338;50.430;6.806;2022-11-18T00:31:52;7.60;;;2.28;;
46613;SDS011;32338;50.430;6.806;2022-11-18T00:34:22;4.45;;;2.25;;
46613;SDS011;32338;50.430;6.806;2022-11-18T00:36:49;8.20;;;2.75;;
46613;SDS011;32338;50.430;6.806;2022-11-18T00:39:18;6.90;;;2.50;;
46613;SDS011;32338;50.430;6.806;2022-11-18T00:41:45;9.43;;;2.40;;
46613;SDS011;32338;50.430;6.806;2022-11-18T00:44:30;7.63;;;2.75;;
46613;SDS011;32338;50.430;6.806;2022-11-18T00:46:57;7.90;;;2.53;;
46613;SDS011;32338;50.430;6.806;2022-11-18T00:49:25;5.80;;;2.13;;
46613;SDS011;32338;50.430;6.806;2022-11-18T00:51:52;10.32;;;2.28;;
46613;SDS011;32338;50.430;6.806;2022-11-18T00:54:19;10.88;;;2.28;;
46613;SDS011;32338;50.430;6.806;2022-11-18T00:56:45;13.05;;;2.55;;
46613;SDS011;32338;50.430;6.806;2022-11-18T00:59:15;6.15;;;2.38;;
46613;SDS011;32338;50.430;6.806;2022-11-18T01:01:42;5.78;;;2.63;;
46613;SDS011;32338;50.430;6.806;2022-11-18T01:04:09;6.47;;;2.17;;
46613;SDS011;32338;50.430;6.806;2022-11-18T01:06:39;10.57;;;2.75;;
46613;SDS011;32338;50.430;6.806;2022-11-18T01:09:06;12.23;;;3.67;;
46613;SDS011;32338;50.430;6.806;2022-11-18T01:11:33;7.72;;;2.90;;
46613;SDS011;32338;50.430;6.806;2022-11-18T01:14:17;6.15;;;2.38;;
46613;SDS011;32338;50.430;6.806;2022-11-18T01:16:44;6.80;;;2.53;;
46613;SDS011;32338;50.430;6.806;2022-11-18T01:19:15;13.45;;;4.68;;
46613;SDS011;32338;50.430;6.806;2022-11-18T01:21:43;17.67;;;4.13;;
46613;SDS011;32338;50.430;6.806;2022-11-18T01:24:10;14.82;;;2.65;;
46613;SDS011;32338;50.430;6.806;2022-11-18T01:26:37;8.00;;;2.22;;
46613;SDS011;32338;50.430;6.806;2022-11-18T01:29:04;127.80;;;3.92;;
46613;SDS011;32338;50.430;6.806;2022-11-18T01:31:31;25.92;;;2.35;;
46613;SDS011;32338;50.430;6.806;2022-11-18T01:33:58;9.35;;;3.13;;
46613;SDS011;32338;50.430;6.806;2022-11-18T01:36:25;39.78;;;5.65;;
46613;SDS011;32338;50.430;6.806;2022-11-18T01:38:55;48.38;;;6.45;;
46613;SDS011;32338;50.430;6.806;2022-11-18T01:41:22;39.65;;;9.45;;
46613;SDS011;32338;50.430;6.806;2022-11-18T01:43:52;24.05;;;9.90;;
46613;SDS011;32338;50.430;6.806;2022-11-18T01:46:21;19.33;;;7.90;;
46613;SDS011;32338;50.430;6.806;2022-11-18T01:48:49;19.15;;;6.47;;
46613;SDS011;32338;50.430;6.806;2022-11-18T01:51:21;20.30;;;3.90;;
46613;SDS011;32338;50.430;6.806;2022-11-18T01:53:52;38.50;;;3.80;;
46613;SDS011;32338;50.430;6.806;2022-11-18T01:56:28;89.82;;;4.55;;
46613;SDS011;32338;50.430;6.806;2022-11-18T01:59:00;53.58;;;3.20;;
46613;SDS011;32338;50.430;6.806;2022-11-18T02:01:30;17.98;;;2.83;;
46613;SDS011;32338;50.430;6.806;2022-11-18T02:03:57;7.88;;;2.53;;
46613;SDS011;32338;50.430;6.806;2022-11-18T02:06:24;7.10;;;2.83;;
46613;SDS011;32338;50.430;6.806;2022-11-18T02:08:51;10.80;;;3.72;;
46613;SDS011;32338;50.430;6.806;2022-11-18T02:11:19;6.45;;;2.40;;
46613;SDS011;32338;50.430;6.806;2022-11-18T02:14:03;5.97;;;2.50;;
46613;SDS011;32338;50.430;6.806;2022-11-18T02:16:36;6.45;;;2.75;;
46613;SDS011;32338;50.430;6.806;2022-11-18T02:19:24;9.05;;;2.67;;
46613;SDS011;32338;50.430;6.806;2022-11-18T02:22:13;4.18;;;2.60;;
46613;SDS011;32338;50.430;6.806;2022-11-18T02:24:51;4.90;;;2.58;;
46613;SDS011;32338;50.430;6.806;2022-11-18T02:30:27;6.00;;;2.35;;
46613;SDS011;32338;50.430;6.806;2022-11-18T02:33:02;12.65;;;3.40;;
46613;SDS011;32338;50.430;6.806;2022-11-18T02:35:38;7.40;;;2.58;;
46613;SDS011;32338;50.430;6.806;2022-11-18T02:38:08;5.53;;;2.10;;
46613;SDS011;32338;50.430;6.806;2022-11-18T02:40:38;9.20;;;2.50;;
46613;SDS011;32338;50.430;6.806;2022-11-18T02:43:10;9.27;;;3.42;;
46613;SDS011;32338;50.430;6.806;2022-11-18T02:45:45;5.55;;;2.78;;
46613;SDS011;32338;50.430;6.806;2022-11-18T02:48:15;4.30;;;2.60;;
46613;SDS011;32338;50.430;6.806;2022-11-18T02:50:45;6.13;;;2.75;;
46613;SDS011;32338;50.430;6.806;2022-11-18T02:53:21;8.45;;;2.55;;
46613;SDS011;32338;50.430;6.806;2022-11-18T02:55:54;5.30;;;2.60;;
46613;SDS011;32338;50.430;6.806;2022-11-18T02:58:22;6.72;;;2.72;;
46613;SDS011;32338;50.430;6.806;2022-11-18T03:01:00;8.25;;;3.65;;
46613;SDS011;32338;50.430;6.806;2022-11-18T03:03:30;8.77;;;3.35;;
46613;SDS011;32338;50.430;6.806;2022-11-18T03:06:03;9.35;;;4.40;;
46613;SDS011;32338;50.430;6.806;2022-11-18T03:08:37;10.95;;;5.15;;
46613;SDS011;32338;50.430;6.806;2022-11-18T03:11:13;12.98;;;4.50;;
46613;SDS011;32338;50.430;6.806;2022-11-18T03:13:53;8.70;;;3.78;;
46613;SDS011;32338;50.430;6.806;2022-11-18T03:16:37;9.57;;;3.40;;
46613;SDS011;32338;50.430;6.806;2022-11-18T03:19:13;5.80;;;3.38;;
46613;SDS011;32338;50.430;6.806;2022-11-18T03:21:47;4.72;;;3.15;;
46613;SDS011;32338;50.430;6.806;2022-11-18T03:24:25;14.45;;;3.75;;
46613;SDS011;32338;50.430;6.806;2022-11-18T03:27:00;6.20;;;3.15;;
46613;SDS011;32338;50.430;6.806;2022-11-18T03:29:37;7.20;;;2.55;;
46613;SDS011;32338;50.430;6.806;2022-11-18T03:32:10;7.60;;;2.92;;
46613;SDS011;32338;50.430;6.806;2022-11-18T03:34:40;5.10;;;2.75;;
46613;SDS011;32338;50.430;6.806;2022-11-18T03:37:22;3.67;;;2.75;;
46613;SDS011;32338;50.430;6.806;2022-11-18T03:39:52;5.40;;;2.90;;
46613;SDS011;32338;50.430;6.806;2022-11-18T03:42:27;8.73;;;3.05;;
46613;SDS011;32338;50.430;6.806;2022-11-18T03:45:00;11.52;;;2.97;;
46613;SDS011;32338;50.430;6.806;2022-11-18T03:47:36;6.68;;;2.83;;
46613;SDS011;32338;50.430;6.806;2022-11-18T03:50:10;7.13;;;3.15;;
46613;SDS011;32338;50.430;6.806;2022-11-18T03:52:42;19.02;;;4.05;;
46613;SDS011;32338;50.430;6.806;2022-11-18T03:55:12;10.77;;;4.38;;
46613;SDS011;32338;50.430;6.806;2022-11-18T03:57:44;11.02;;;3.90;;
46613;SDS011;32338;50.430;6.806;2022-11-18T04:00:19;8.10;;;3.30;;
46613;SDS011;32338;50.430;6.806;2022-11-18T04:02:48;12.55;;;4.50;;
46613;SDS011;32338;50.430;6.806;2022-11-18T04:05:15;18.60;;;4.95;;
46613;SDS011;32338;50.430;6.806;2022-11-18T04:07:50;14.13;;;4.50;;
46613;SDS011;32338;50.430;6.806;2022-11-18T04:10:22;10.15;;;4.00;;
46613;SDS011;32338;50.430;6.806;2022-11-18T04:12:56;15.02;;;3.50;;
46613;SDS011;32338;50.430;6.806;2022-11-18T04:15:29;14.65;;;5.15;;
46613;SDS011;32338;50.430;6.806;2022-11-18T04:17:58;5.07;;;4.00;;
46613;SDS011;32338;50.430;6.806;2022-11-18T04:20:25;8.80;;;4.00;;
46613;SDS011;32338;50.430;6.806;2022-11-18T04:22:52;12.95;;;6.32;;
46613;SDS011;32338;50.430;6.806;2022-11-18T04:25:19;13.70;;;7.40;;
46613;SDS011;32338;50.430;6.806;2022-11-18T04:27:48;13.18;;;6.18;;
46613;SDS011;32338;50.430;6.806;2022-11-18T04:30:15;19.10;;;7.57;;
46613;SDS011;32338;50.430;6.806;2022-11-18T04:32:42;18.05;;;8.68;;
46613;SDS011;32338;50.430;6.806;2022-11-18T04:35:11;24.98;;;8.02;;
46613;SDS011;32338;50.430;6.806;2022-11-18T04:37:37;26.33;;;8.63;;
46613;SDS011;32338;50.430;6.806;2022-11-18T04:40:15;27.10;;;8.82;;
46613;SDS011;32338;50.430;6.806;2022-11-18T04:42:42;23.80;;;8.50;;
46613;SDS011;32338;50.430;6.806;2022-11-18T04:45:11;18.60;;;8.48;;
46613;SDS011;32338;50.430;6.806;2022-11-18T04:47:38;16.10;;;8.30;;
46613;SDS011;32338;50.430;6.806;2022-11-18T04:50:05;27.75;;;8.20;;
46613;SDS011;32338;50.430;6.806;2022-11-18T04:52:34;19.10;;;8.38;;
46613;SDS011;32338;50.430;6.806;2022-11-18T04:55:01;17.40;;;7.97;;
46613;SDS011;32338;50.430;6.806;2022-11-18T04:57:27;17.67;;;8.13;;
46613;SDS011;32338;50.430;6.806;2022-11-18T04:59:54;18.65;;;7.63;;
46613;SDS011;32338;50.430;6.806;2022-11-18T05:02:21;17.95;;;7.90;;
46613;SDS011;32338;50.430;6.806;2022-11-18T05:04:48;19.48;;;8.02;;
46613;SDS011;32338;50.430;6.806;2022-11-18T05:07:15;21.05;;;7.93;;
46613;SDS011;32338;50.430;6.806;2022-11-18T05:09:48;13.23;;;7.47;;
46613;SDS011;32338;50.430;6.806;2022-11-18T05:12:18;15.60;;;7.03;;
46613;SDS011;32338;50.430;6.806;2022-11-18T05:15:02;17.35;;;6.75;;
46613;SDS011;32338;50.430;6.806;2022-11-18T05:17:30;13.60;;;6.97;;
46613;SDS011;32338;50.430;6.806;2022-11-18T05:19:57;15.80;;;6.80;;
46613;SDS011;32338;50.430;6.806;2022-11-18T05:22:29;13.55;;;6.90;;
46613;SDS011;32338;50.430;6.806;2022-11-18T05:24:58;11.25;;;5.95;;
46613;SDS011;32338;50.430;6.806;2022-11-18T05:27:27;20.10;;;6.75;;
46613;SDS011;32338;50.430;6.806;2022-11-18T05:29:54;20.13;;;7.72;;
46613;SDS011;32338;50.430;6.806;2022-11-18T05:32:21;18.67;;;7.05;;
46613;SDS011;32338;50.430;6.806;2022-11-18T05:34:48;15.45;;;7.38;;
46613;SDS011;32338;50.430;6.806;2022-11-18T05:37:17;18.25;;;7.97;;
46613;SDS011;32338;50.430;6.806;2022-11-18T05:39:48;18.08;;;7.32;;
46613;SDS011;32338;50.430;6.806;2022-11-18T05:42:19;21.98;;;7.32;;
46613;SDS011;32338;50.430;6.806;2022-11-18T05:45:04;14.75;;;7.47;;
46613;SDS011;32338;50.430;6.806;2022-11-18T05:47:32;17.10;;;8.23;;
46613;SDS011;32338;50.430;6.806;2022-11-18T05:50:19;17.65;;;7.55;;
46613;SDS011;32338;50.430;6.806;2022-11-18T05:52:46;13.30;;;7.25;;
46613;SDS011;32338;50.430;6.806;2022-11-18T05:55:15;13.10;;;7.10;;
46613;SDS011;32338;50.430;6.806;2022-11-18T05:57:46;16.30;;;6.97;;
46613;SDS011;32338;50.430;6.806;2022-11-18T06:00:15;16.60;;;7.28;;
46613;SDS011;32338;50.430;6.806;2022-11-18T06:02:47;11.82;;;7.45;;
46613;SDS011;32338;50.430;6.806;2022-11-18T06:05:20;18.67;;;7.28;;
46613;SDS011;32338;50.430;6.806;2022-11-18T06:07:53;19.70;;;7.70;;
46613;SDS011;32338;50.430;6.806;2022-11-18T06:10:28;12.10;;;6.38;;
46613;SDS011;32338;50.430;6.806;2022-11-18T06:13:04;11.00;;;5.90;;
46613;SDS011;32338;50.430;6.806;2022-11-18T06:15:37;11.30;;;6.10;;
46613;SDS011;32338;50.430;6.806;2022-11-18T06:18:12;13.43;;;6.78;;
46613;SDS011;32338;50.430;6.806;2022-11-18T06:20:45;15.25;;;6.65;;
46613;SDS011;32338;50.430;6.806;2022-11-18T06:23:13;8.90;;;6.05;;
46613;SDS011;32338;50.430;6.806;2022-11-18T06:25:41;14.10;;;6.63;;
46613;SDS011;32338;50.430;6.806;2022-11-18T06:28:14;13.70;;;6.22;;
46613;SDS011;32338;50.430;6.806;2022-11-18T06:30:43;8.85;;;5.57;;
46613;SDS011;32338;50.430;6.806;2022-11-18T06:33:11;16.20;;;7.97;;
46613;SDS011;32338;50.430;6.806;2022-11-18T06:35:41;12.68;;;6.72;;
46613;SDS011;32338;50.430;6.806;2022-11-18T06:38:08;16.52;;;8.57;;
46613;SDS011;32338;50.430;6.806;2022-11-18T06:40:38;16.90;;;10.13;;
46613;SDS011;32338;50.430;6.806;2022-11-18T06:43:09;13.90;;;8.73;;
46613;SDS011;32338;50.430;6.806;2022-11-18T06:45:58;13.98;;;12.52;;
46613;SDS011;32338;50.430;6.806;2022-11-18T06:48:41;9.15;;;6.45;;
46613;SDS011;32338;50.430;6.806;2022-11-18T06:51:09;20.42;;;6.20;;
46613;SDS011;32338;50.430;6.806;2022-11-18T06:53:37;12.15;;;5.70;;
46613;SDS011;32338;50.430;6.806;2022-11-18T06:56:07;11.15;;;5.63;;
46613;SDS011;32338;50.430;6.806;2022-11-18T06:58:36;9.98;;;5.88;;
46613;SDS011;32338;50.430;6.806;2022-11-18T07:01:11;9.38;;;5.38;;
46613;SDS011;32338;50.430;6.806;2022-11-18T07:03:40;12.30;;;5.70;;
46613;SDS011;32338;50.430;6.806;2022-11-18T07:06:08;7.10;;;5.47;;
46613;SDS011;32338;50.430;6.806;2022-11-18T07:08:37;16.45;;;5.50;;
46613;SDS011;32338;50.430;6.806;2022-11-18T07:11:09;13.48;;;5.35;;
46613;SDS011;32338;50.430;6.806;2022-11-18T07:13:40;10.45;;;5.65;;
46613;SDS011;32338;50.430;6.806;2022-11-18T07:16:13;10.73;;;5.53;;
46613;SDS011;32338;50.430;6.806;2022-11-18T07:18:42;6.47;;;4.28;;
46613;SDS011;32338;50.430;6.806;2022-11-18T07:21:11;6.68;;;4.63;;
46613;SDS011;32338;50.430;6.806;2022-11-18T07:23:43;8.13;;;4.55;;
46613;SDS011;32338;50.430;6.806;2022-11-18T07:26:25;8.13;;;4.47;;
46613;SDS011;32338;50.430;6.806;2022-11-18T07:28:55;11.30;;;4.38;;
46613;SDS011;32338;50.430;6.806;2022-11-18T07:31:26;11.57;;;4.50;;
46613;SDS011;32338;50.430;6.806;2022-11-18T07:33:56;9.32;;;4.10;;
46613;SDS011;32338;50.430;6.806;2022-11-18T07:36:24;11.20;;;4.13;;
46613;SDS011;32338;50.430;6.806;2022-11-18T07:38:52;11.27;;;4.55;;
46613;SDS011;32338;50.430;6.806;2022-11-18T07:41:26;10.32;;;3.88;;
46613;SDS011;32338;50.430;6.806;2022-11-18T07:43:56;11.05;;;3.70;;
46613;SDS011;32338;50.430;6.806;2022-11-18T07:46:34;6.13;;;3.72;;
46613;SDS011;32338;50.430;6.806;2022-11-18T07:49:02;8.85;;;4.13;;
46613;SDS011;32338;50.430;6.806;2022-11-18T07:51:33;8.93;;;4.13;;
46613;SDS011;32338;50.430;6.806;2022-11-18T07:54:04;4.35;;;3.90;;
46613;SDS011;32338;50.430;6.806;2022-11-18T07:56:37;3.97;;;3.58;;
46613;SDS011;32338;50.430;6.806;2022-11-18T07:59:04;9.02;;;3.47;;
46613;SDS011;32338;50.430;6.806;2022-11-18T08:01:32;4.03;;;3.47;;
46613;SDS011;32338;50.430;6.806;2022-11-18T08:04:03;3.78;;;3.20;;
46613;SDS011;32338;50.430;6.806;2022-11-18T08:06:31;7.97;;;3.47;;
46613;SDS011;32338;50.430;6.806;2022-11-18T08:08:58;6.05;;;3.33;;
46613;SDS011;32338;50.430;6.806;2022-11-18T08:11:26;8.55;;;3.33;;
46613;SDS011;32338;50.430;6.806;2022-11-18T08:13:55;9.32;;;3.53;;
46613;SDS011;32338;50.430;6.806;2022-11-18T08:16:24;9.63;;;3.80;;
46613;SDS011;32338;50.430;6.806;2022-11-18T08:18:53;5.07;;;3.30;;
46613;SDS011;32338;50.430;6.806;2022-11-18T08:21:21;7.07;;;3.50;;
46613;SDS011;32338;50.430;6.806;2022-11-18T08:23:49;4.50;;;3.28;;
46613;SDS011;32338;50.430;6.806;2022-11-18T08:26:16;6.45;;;3.08;;
46613;SDS011;32338;50.430;6.806;2022-11-18T08:28:43;4.78;;;3.33;;
46613;SDS011;32338;50.430;6.806;2022-11-18T08:31:16;6.80;;;3.45;;
46613;SDS011;32338;50.430;6.806;2022-11-18T08:33:43;8.98;;;3.58;;
46613;SDS011;32338;50.430;6.806;2022-11-18T08:36:19;5.20;;;4.13;;
46613;SDS011;32338;50.430;6.806;2022-11-18T08:38:50;6.93;;;3.90;;
46613;SDS011;32338;50.430;6.806;2022-11-18T08:41:19;6.30;;;3.60;;
46613;SDS011;32338;50.430;6.806;2022-11-18T08:44:00;6.22;;;3.47;;
46613;SDS011;32338;50.430;6.806;2022-11-18T08:46:26;6.43;;;2.67;;
46613;SDS011;32338;50.430;6.806;2022-11-18T08:48:53;9.23;;;3.10;;
46613;SDS011;32338;50.430;6.806;2022-11-18T08:51:22;5.53;;;2.22;;
46613;SDS011;32338;50.430;6.806;2022-11-18T08:53:50;5.85;;;2.60;;
46613;SDS011;32338;50.430;6.806;2022-11-18T08:56:17;8.65;;;2.75;;
46613;SDS011;32338;50.430;6.806;2022-11-18T08:58:46;6.30;;;2.35;;
46613;SDS011;32338;50.430;6.806;2022-11-18T09:01:16;2.08;;;1.80;;
46613;SDS011;32338;50.430;6.806;2022-11-18T09:03:43;4.93;;;2.75;;
46613;SDS011;32338;50.430;6.806;2022-11-18T09:06:11;3.95;;;2.70;;
46613;SDS011;32338;50.430;6.806;2022-11-18T09:08:41;5.68;;;2.83;;
46613;SDS011;32338;50.430;6.806;2022-11-18T09:11:10;4.85;;;2.33;;
46613;SDS011;32338;50.430;6.806;2022-11-18T09:13:40;10.38;;;2.72;;
46613;SDS011;32338;50.430;6.806;2022-11-18T09:16:13;4.30;;;2.88;;
46613;SDS011;32338;50.430;6.806;2022-11-18T09:18:39;4.32;;;2.08;;
46613;SDS011;32338;50.430;6.806;2022-11-18T09:21:06;6.63;;;2.38;;
46613;SDS011;32338;50.430;6.806;2022-11-18T09:23:35;7.15;;;2.22;;
46613;SDS011;32338;50.430;6.806;2022-11-18T09:26:05;6.90;;;2.25;;
46613;SDS011;32338;50.430;6.806;2022-11-18T09:28:33;5.93;;;2.55;;
46613;SDS011;32338;50.430;6.806;2022-11-18T09:31:02;5.72;;;2.08;;
46613;SDS011;32338;50.430;6.806;2022-11-18T09:33:29;9.63;;;2.13;;
46613;SDS011;32338;50.430;6.806;2022-11-18T09:35:56;4.90;;;2.05;;
46613;SDS011;32338;50.430;6.806;2022-11-18T09:38:23;7.10;;;1.88;;
46613;SDS011;32338;50.430;6.806;2022-11-18T09:40:52;5.65;;;1.92;;
46613;SDS011;32338;50.430;6.806;2022-11-18T09:43:32;4.75;;;1.50;;
46613;SDS011;32338;50.430;6.806;2022-11-18T09:46:07;4.15;;;1.20;;
46613;SDS011;32338;50.430;6.806;2022-11-18T09:48:45;2.17;;;1.10;;
46613;SDS011;32338;50.430;6.806;2022-11-18T09:54:01;4.57;;;1.15;;
46613;SDS011;32338;50.430;6.806;2022-11-18T09:56:28;4.10;;;1.15;;
46613;SDS011;32338;50.430;6.806;2022-11-18T09:58:56;6.28;;;1.38;;
46613;SDS011;32338;50.430;6.806;2022-11-18T10:01:23;3.88;;;0.98;;
46613;SDS011;32338;50.430;6.806;2022-11-18T10:03:49;3.28;;;0.80;;
46613;SDS011;32338;50.430;6.806;2022-11-18T10:06:18;4.45;;;0.88;;
46613;SDS011;32338;50.430;6.806;2022-11-18T10:08:54;4.82;;;0.85;;
46613;SDS011;32338;50.430;6.806;2022-11-18T10:11:31;4.57;;;0.80;;
46613;SDS011;32338;50.430;6.806;2022-11-18T10:14:07;4.05;;;0.70;;
46613;SDS011;32338;50.430;6.806;2022-11-18T10:16:46;5.97;;;0.68;;
46613;SDS011;32338;50.430;6.806;2022-11-18T10:19:21;7.78;;;1.02;;
46613;SDS011;32338;50.430;6.806;2022-11-18T10:21:56;8.25;;;1.08;;
46613;SDS011;32338;50.430;6.806;2022-11-18T10:24:34;4.95;;;0.88;;
46613;SDS011;32338;50.430;6.806;2022-11-18T10:27:06;5.22;;;1.02;;
46613;SDS011;32338;50.430;6.806;2022-11-18T10:29:37;7.10;;;0.90;;
46613;SDS011;32338;50.430;6.806;2022-11-18T10:32:04;5.55;;;1.00;;
46613;SDS011;32338;50.430;6.806;2022-11-18T10:34:33;4.72;;;0.77;;
46613;SDS011;32338;50.430;6.806;2022-11-18T10:37:12;4.63;;;0.70;;
46613;SDS011;32338;50.430;6.806;2022-11-18T10:39:48;6.72;;;1.00;;
46613;SDS011;32338;50.430;6.806;2022-11-18T10:42:16;5.93;;;0.93;;
46613;SDS011;32338;50.430;6.806;2022-11-18T10:44:51;4.00;;;0.57;;
46613;SDS011;32338;50.430;6.806;2022-11-18T10:47:25;7.32;;;0.80;;
46613;SDS011;32338;50.430;6.806;2022-11-18T10:52:21;3.47;;;1.00;;
46613;SDS011;32338;50.430;6.806;2022-11-18T10:55:03;5.95;;;0.50;;
46613;SDS011;32338;50.430;6.806;2022-11-18T10:57:43;5.40;;;0.77;;
46613;SDS011;32338;50.430;6.806;2022-11-18T11:03:22;1.73;;;0.60;;
46613;SDS011;32338;50.430;6.806;2022-11-18T11:06:12;4.75;;;0.82;;
46613;SDS011;32338;50.430;6.806;2022-11-18T11:08:48;5.22;;;0.80;;
46613;SDS011;32338;50.430;6.806;2022-11-18T11:11:23;6.50;;;0.95;;
46613;SDS011;32338;50.430;6.806;2022-11-18T11:13:53;5.55;;;0.80;;
46613;SDS011;32338;50.430;6.806;2022-11-18T11:16:25;5.13;;;0.85;;
46613;SDS011;32338;50.430;6.806;2022-11-18T11:18:55;5.53;;;1.08;;
46613;SDS011;32338;50.430;6.806;2022-11-18T11:21:27;3.15;;;0.50;;
46613;SDS011;32338;50.430;6.806;2022-11-18T11:23:55;4.10;;;0.77;;
46613;SDS011;32338;50.430;6.806;2022-11-18T11:26:24;5.57;;;1.00;;
46613;SDS011;32338;50.430;6.806;2022-11-18T11:29:00;9.50;;;0.90;;
46613;SDS011;32338;50.430;6.806;2022-11-18T11:31:37;5.40;;;0.80;;
46613;SDS011;32338;50.430;6.806;2022-11-18T11:34:15;8.50;;;0.85;;
46613;SDS011;32338;50.430;6.806;2022-11-18T11:36:50;3.65;;;0.80;;
46613;SDS011;32338;50.430;6.806;2022-11-18T11:39:32;8.32;;;0.90;;
46613;SDS011;32338;50.430;6.806;2022-11-18T11:42:09;4.07;;;0.77;;
46613;SDS011;32338;50.430;6.806;2022-11-18T11:44:49;4.22;;;0.73;;
46613;SDS011;32338;50.430;6.806;2022-11-18T11:47:29;9.85;;;0.70;;
46613;SDS011;32338;50.430;6.806;2022-11-18T11:50:16;9.70;;;1.17;;
46613;SDS011;32338;50.430;6.806;2022-11-18T11:52:49;9.02;;;0.70;;
46613;SDS011;32338;50.430;6.806;2022-11-18T11:55:30;10.07;;;0.77;;
46613;SDS011;32338;50.430;6.806;2022-11-18T11:58:04;6.38;;;0.75;;
46613;SDS011;32338;50.430;6.806;2022-11-18T12:00:44;4.57;;;0.60;;
46613;SDS011;32338;50.430;6.806;2022-11-18T12:03:23;7.07;;;0.80;;
46613;SDS011;32338;50.430;6.806;2022-11-18T12:06:06;5.65;;;1.30;;
46613;SDS011;32338;50.430;6.806;2022-11-18T12:08:34;4.38;;;0.70;;
46613;SDS011;32338;50.430;6.806;2022-11-18T12:11:05;5.18;;;0.88;;
46613;SDS011;32338;50.430;6.806;2022-11-18T12:13:39;3.83;;;0.70;;
46613;SDS011;32338;50.430;6.806;2022-11-18T12:16:24;4.95;;;0.80;;
46613;SDS011;32338;50.430;6.806;2022-11-18T12:19:00;2.78;;;0.55;;
46613;SDS011;32338;50.430;6.806;2022-11-18T12:21:52;3.77;;;0.83;;
46613;SDS011;32338;50.430;6.806;2022-11-18T12:24:23;5.45;;;0.55;;
46613;SDS011;32338;50.430;6.806;2022-11-18T12:26:56;2.20;;;0.60;;
46613;SDS011;32338;50.430;6.806;2022-11-18T12:29:24;2.15;;;0.70;;
46613;SDS011;32338;50.430;6.806;2022-11-18T12:31:52;3.70;;;0.63;;
46613;SDS011;32338;50.430;6.806;2022-11-18T12:34:29;7.78;;;0.65;;
46613;SDS011;32338;50.430;6.806;2022-11-18T12:39:58;3.50;;;0.60;;
46613;SDS011;32338;50.430;6.806;2022-11-18T12:42:32;3.72;;;0.57;;
46613;SDS011;32338;50.430;6.806;2022-11-18T12:57:11;6.00;;;0.43;;
46613;SDS011;32338;50.430;6.806;2022-11-18T12:59:43;9.18;;;0.75;;
46613;SDS011;32338;50.430;6.806;2022-11-18T13:02:18;6.25;;;0.52;;
46613;SDS011;32338;50.430;6.806;2022-11-18T13:07:32;5.20;;;0.88;;
46613;SDS011;32338;50.430;6.806;2022-11-18T13:12:48;6.15;;;0.60;;
46613;SDS011;32338;50.430;6.806;2022-11-18T13:15:16;2.78;;;0.73;;
46613;SDS011;32338;50.430;6.806;2022-11-18T13:18:05;5.70;;;1.38;;
46613;SDS011;32338;50.430;6.806;2022-11-18T13:23:14;3.42;;;0.63;;
46613;SDS011;32338;50.430;6.806;2022-11-18T13:26:12;2.97;;;0.47;;
46613;SDS011;32338;50.430;6.806;2022-11-18T13:31:14;4.30;;;0.50;;
46613;SDS011;32338;50.430;6.806;2022-11-18T13:33:47;0.88;;;0.40;;
46613;SDS011;32338;50.430;6.806;2022-11-18T13:36:15;1.83;;;0.50;;
46613;SDS011;32338;50.430;6.806;2022-11-18T13:38:53;5.57;;;0.50;;
46613;SDS011;32338;50.430;6.806;2022-11-18T13:41:22;6.72;;;0.90;;
46613;SDS011;32338;50.430;6.806;2022-11-18T13:46:42;2.33;;;0.70;;
46613;SDS011;32338;50.430;6.806;2022-11-18T13:49:11;2.70;;;0.57;;
46613;SDS011;32338;50.430;6.806;2022-11-18T13:51:42;3.15;;;0.65;;
46613;SDS011;32338;50.430;6.806;2022-11-18T13:54:10;5.55;;;0.60;;
46613;SDS011;32338;50.430;6.806;2022-11-18T13:56:42;6.32;;;0.55;;
46613;SDS011;32338;50.430;6.806;2022-11-18T13:59:12;3.45;;;0.65;;
46613;SDS011;32338;50.430;6.806;2022-11-18T14:01:42;5.80;;;1.05;;
46613;SDS011;32338;50.430;6.806;2022-11-18T14:04:14;2.90;;;0.55;;
46613;SDS011;32338;50.430;6.806;2022-11-18T14:06:44;3.00;;;0.73;;
46613;SDS011;32338;50.430;6.806;2022-11-18T14:09:15;5.88;;;0.70;;
46613;SDS011;32338;50.430;6.806;2022-11-18T14:11:56;4.55;;;0.60;;
46613;SDS011;32338;50.430;6.806;2022-11-18T14:14:29;2.20;;;0.70;;
46613;SDS011;32338;50.430;6.806;2022-11-18T14:17:02;2.50;;;0.82;;
46613;SDS011;32338;50.430;6.806;2022-11-18T14:19:31;3.83;;;0.70;;
46613;SDS011;32338;50.430;6.806;2022-11-18T14:22:02;2.72;;;0.63;;
46613;SDS011;32338;50.430;6.806;2022-11-18T14:24:29;1.33;;;0.45;;
46613;SDS011;32338;50.430;6.806;2022-11-18T14:26:58;4.90;;;0.80;;
46613;SDS011;32338;50.430;6.806;2022-11-18T14:29:24;2.25;;;0.50;;
46613;SDS011;32338;50.430;6.806;2022-11-18T14:32:11;3.65;;;0.50;;
46613;SDS011;32338;50.430;6.806;2022-11-18T14:34:38;4.45;;;0.50;;
46613;SDS011;32338;50.430;6.806;2022-11-18T14:37:08;3.35;;;0.50;;
46613;SDS011;32338;50.430;6.806;2022-11-18T14:39:36;4.65;;;0.90;;
46613;SDS011;32338;50.430;6.806;2022-11-18T14:42:04;1.33;;;0.50;;
46613;SDS011;32338;50.430;6.806;2022-11-18T14:44:31;5.82;;;0.60;;
46613;SDS011;32338;50.430;6.806;2022-11-18T14:46:58;4.38;;;0.95;;
46613;SDS011;32338;50.430;6.806;2022-11-18T14:49:27;6.78;;;0.57;;
46613;SDS011;32338;50.430;6.806;2022-11-18T14:51:55;4.20;;;0.60;;
46613;SDS011;32338;50.430;6.806;2022-11-18T14:54:23;5.10;;;0.50;;
46613;SDS011;32338;50.430;6.806;2022-11-18T14:56:51;3.17;;;0.65;;
46613;SDS011;32338;50.430;6.806;2022-11-18T14:59:20;3.35;;;0.50;;
46613;SDS011;32338;50.430;6.806;2022-11-18T15:01:47;2.58;;;0.80;;
46613;SDS011;32338;50.430;6.806;2022-11-18T15:04:14;2.58;;;0.40;;
46613;SDS011;32338;50.430;6.806;2022-11-18T15:06:41;0.75;;;0.40;;
46613;SDS011;32338;50.430;6.806;2022-11-18T15:09:09;2.03;;;0.60;;
46613;SDS011;32338;50.430;6.806;2022-11-18T15:11:37;3.22;;;0.60;;
46613;SDS011;32338;50.430;6.806;2022-11-18T15:14:04;3.75;;;0.60;;
46613;SDS011;32338;50.430;6.806;2022-11-18T15:16:32;2.35;;;0.65;;
46613;SDS011;32338;50.430;6.806;2022-11-18T15:19:00;2.15;;;0.60;;
46613;SDS011;32338;50.430;6.806;2022-11-18T15:21:29;3.55;;;0.60;;
46613;SDS011;32338;50.430;6.806;2022-11-18T15:23:56;5.93;;;0.60;;
46613;SDS011;32338;50.430;6.806;2022-11-18T15:26:23;4.70;;;0.60;;
46613;SDS011;32338;50.430;6.806;2022-11-18T15:28:51;2.95;;;0.73;;
46613;SDS011;32338;50.430;6.806;2022-11-18T15:31:19;3.80;;;0.50;;
46613;SDS011;32338;50.430;6.806;2022-11-18T15:33:48;2.60;;;0.50;;
46613;SDS011;32338;50.430;6.806;2022-11-18T15:36:15;2.60;;;0.60;;
46613;SDS011;32338;50.430;6.806;2022-11-18T15:38:44;4.85;;;0.55;;
46613;SDS011;32338;50.430;6.806;2022-11-18T15:41:12;3.25;;;0.68;;
46613;SDS011;32338;50.430;6.806;2022-11-18T15:43:41;4.95;;;0.70;;
46613;SDS011;32338;50.430;6.806;2022-11-18T15:46:08;7.60;;;0.70;;
46613;SDS011;32338;50.430;6.806;2022-11-18T15:48:34;2.78;;;0.70;;